Data for 03/03/2005

Time Sea-Level Adjusted Pressure Absolute Pressure Temperature Relative Humidity Dew Point   
(mb) (inHg) (mb) (inHg) (C) (F) (%) (C) (F)
00:05 1017 30.03 846 24.98 1.1 34 49 -8.5 16.7
00:10 1017 30.03 846 24.98 1.1 34 48 -8.8 16.2
00:15 1017 30.03 846 24.98 1.3 34.4 47 -8.8 16.1
00:20 1017 30.03 846 24.98 1.3 34.4 47 -8.7 16.3
00:25 1017 30.03 846 24.98 1.4 34.5 47 -8.7 16.4
00:30 1017 30.03 846 24.98 1.5 34.7 48 -8.5 16.7
00:35 1017 30.03 846 24.98 1.6 34.9 47 -8.5 16.6
00:40 1017 30.03 846 24.98 1.7 35 48 -8.3 17
00:45 1017 30.03 846 24.98 1.3 34.3 50 -8.1 17.4
00:50 1017 30.03 846 24.98 1.2 34.2 50 -8.1 17.5
00:55 1017 30.03 846 24.98 0.7 33.3 54 -7.5 18.4
01:00 1017 30.03 846 24.98 0.2 32.4 55 -7.7 18.2
01:05 1017 30.03 846 24.98 0.1 32.2 56 -7.8 18
01:10 1017 30.03 846 24.98 0.1 32.2 56 -7.7 18.1
01:15 1017 30.03 846 24.98 0.4 32.6 54 -8 17.6
01:20 1017 30.03 846 24.98 0.5 32.9 53 -8 17.6
01:25 1017 30.03 846 24.98 0.5 32.9 53 -7.9 17.8
01:30 1017 30.03 846 24.98 0.5 32.9 53 -8.1 17.5
01:35 1017 30.03 846 24.98 0.6 33 52 -8.2 17.3
01:40 1017 30.03 846 24.98 0.8 33.5 51 -8.1 17.4
01:45 1017 30.03 846 24.98 0.8 33.4 51 -8.3 17.1
01:50 1017 30.03 846 24.98 1 33.7 50 -8.4 16.9
01:55 1017 30.03 846 24.98 1 33.7 50 -8.3 17.1
02:00 1017 30.03 846 24.98 0.7 33.3 51 -8.2 17.2
02:05 1017 30.03 846 24.98 0.6 33.1 50 -8.8 16.2
02:10 1017 30.03 846 24.98 0.8 33.4 49 -8.8 16.1
02:15 1017 30.03 846 24.98 0.7 33.3 51 -8.3 17.1
02:20 1017 30.03 846 24.98 0 32 53 -8.5 16.7
02:25 1017 30.03 846 24.98 -0.3 31.4 55 -8.2 17.2
02:30 1017 30.03 846 24.98 -0.8 30.6 57 -8.2 17.2
02:35 1017 30.03 846 24.98 -0.9 30.4 56 -8.5 16.6
02:40 1017 30.03 846 24.98 -0.4 31.3 53 -8.9 16.1
02:45 1017 30.03 846 24.98 0.1 32.2 51 -8.9 16
02:50 1017 30.03 846 24.98 0.2 32.3 51 -8.8 16.2
02:55 1017 30.03 846 24.98 0.1 32.2 52 -8.7 16.4
03:00 1017 30.03 847 25.01 0.1 32.2 51 -8.8 16.1
03:05 1017 30.03 847 25.01 0.4 32.6 51 -8.7 16.3
03:10 1017 30.03 846 24.98 0.3 32.6 51 -8.8 16.2
03:15 1017 30.03 846 24.98 0.4 32.8 50 -8.7 16.3
03:20 1017 30.03 847 25.01 0.3 32.6 51 -8.8 16.2
03:25 1017 30.03 847 25.01 0.1 32.2 52 -8.5 16.7
03:30 1017 30.03 847 25.01 0 32 53 -8.5 16.6
03:35 1017 30.03 846 24.98 -0.1 31.8 54 -8.3 17
03:40 1017 30.03 847 25.01 -0.4 31.3 56 -8.2 17.2
03:45 1017 30.03 847 25.01 -0.3 31.4 54 -8.6 16.5
03:50 1017 30.03 847 25.01 -0.3 31.4 54 -8.4 16.8
03:55 1017 30.03 847 25.01 -0.5 31 56 -8.3 17.1
04:00 1017 30.03 847 25.01 -0.6 30.8 55 -8.5 16.7
04:05 1017 30.03 847 25.01 -0.6 30.9 56 -8.3 17
04:10 1017 30.03 847 25.01 -1.1 30.1 59 -8.2 17.3
04:15 1017 30.03 847 25.01 -1.3 29.6 60 -8.1 17.3
04:20 1018 30.06 847 25.01 -1.1 30 58 -8.4 16.8
04:25 1017 30.03 847 25.01 -1.2 29.9 58 -8.4 16.9
04:30 1017 30.03 847 25.01 -1.2 29.8 59 -8.2 17.3
04:35 1018 30.06 847 25.01 -1.4 29.5 59 -8.4 16.9
04:40 1018 30.06 847 25.01 -1.3 29.6 59 -8.4 16.9
04:45 1018 30.06 847 25.01 -1.3 29.7 58 -8.5 16.7
04:50 1018 30.06 847 25.01 -1.1 30 57 -8.6 16.6
04:55 1018 30.06 847 25.01 -0.9 30.4 56 -8.6 16.6
05:00 1018 30.06 847 25.01 -0.7 30.7 55 -8.7 16.4
05:05 1018 30.06 847 25.01 -0.7 30.8 56 -8.5 16.7
05:10 1018 30.06 847 25.01 -0.9 30.3 57 -8.5 16.7
05:15 1018 30.06 847 25.01 -1.2 29.9 58 -8.4 16.8
05:20 1018 30.06 847 25.01 -1.1 29.9 56 -8.8 16.2
05:25 1018 30.06 847 25.01 -0.5 31.1 53 -8.9 16
05:30 1018 30.06 847 25.01 -0.2 31.6 52 -8.9 15.9
05:35 1018 30.06 847 25.01 -0.1 31.9 51 -9.1 15.7
05:40 1018 30.06 847 25.01 -0.3 31.4 54 -8.7 16.4
05:45 1018 30.06 847 25.01 -0.3 31.4 52 -9 15.7
05:50 1018 30.06 847 25.01 -0.2 31.7 52 -8.8 16.1
05:55 1018 30.06 847 25.01 -0.2 31.6 52 -8.8 16.1
06:00 1018 30.06 847 25.01 -0.3 31.5 53 -8.6 16.4
06:05 1018 30.06 847 25.01 -0.6 31 55 -8.6 16.6
06:10 1018 30.06 847 25.01 -0.8 30.5 56 -8.5 16.7
06:15 1018 30.06 847 25.01 -0.8 30.5 55 -8.7 16.3
06:20 1018 30.06 847 25.01 -0.8 30.5 56 -8.6 16.5
06:25 1018 30.06 847 25.01 -1 30.2 56 -8.6 16.4
06:30 1018 30.06 847 25.01 -0.9 30.4 55 -8.8 16.2
06:35 1018 30.06 847 25.01 -0.8 30.6 56 -8.6 16.6
06:40 1018 30.06 847 25.01 -0.7 30.8 55 -8.7 16.4
06:45 1018 30.06 848 25.04 -0.5 31.1 54 -8.6 16.4
06:50 1018 30.06 848 25.04 -0.6 31 54 -8.8 16.1
06:55 1018 30.06 848 25.04 -0.4 31.3 53 -9 15.9
07:00 1018 30.06 848 25.04 -0.4 31.3 54 -8.6 16.5
07:05 1018 30.06 848 25.04 -1 30.3 56 -8.6 16.5
07:10 1019 30.09 848 25.04 -1.2 29.8 57 -8.6 16.4
07:15 1019 30.09 848 25.04 -1.2 29.9 57 -8.6 16.5
07:20 1019 30.09 848 25.04 -0.8 30.5 55 -8.8 16.2
07:25 1019 30.09 848 25.04 -0.7 30.7 55 -8.7 16.4
07:30 1019 30.09 848 25.04 -0.8 30.6 55 -8.6 16.5
07:35 1019 30.09 848 25.04 -0.8 30.5 55 -8.7 16.4
07:40 1019 30.09 848 25.04 -0.6 30.8 55 -8.7 16.4
07:45 1019 30.09 848 25.04 -0.4 31.3 54 -8.6 16.6
07:50 1019 30.09 848 25.04 -0.3 31.4 54 -8.5 16.7
07:55 1019 30.09 848 25.04 -0.3 31.4 54 -8.4 16.9
08:00 1019 30.09 848 25.04 -0.3 31.5 55 -8.3 17.1
08:05 1019 30.09 848 25.04 0 32 54 -8.3 17.1
08:10 1019 30.09 848 25.04 0.1 32.2 54 -8.1 17.4
08:15 1019 30.09 848 25.04 0.2 32.4 53 -8.3 17
08:20 1019 30.09 848 25.04 0.5 33 52 -8.2 17.3
08:25 1019 30.09 848 25.04 1 33.7 52 -7.9 17.8
08:30 1019 30.09 848 25.04 1 33.8 51 -8 17.6
08:35 1019 30.09 848 25.04 1.2 34.2 51 -7.9 17.8
08:40 1019 30.09 848 25.04 1.6 34.9 49 -7.9 17.8
08:45 1019 30.09 848 25.04 2.1 35.7 47 -8 17.6
08:50 1019 30.09 848 25.04 2.3 36.1 47 -7.9 17.8
08:55 1019 30.09 848 25.04 2.4 36.3 47 -7.9 17.8
09:00 1019 30.09 848 25.04 2.4 36.4 46 -8 17.6
09:05 1019 30.09 848 25.04 3 37.4 44 -8 17.5
09:10 1019 30.09 848 25.04 3.9 39 42 -7.8 17.9
09:15 1019 30.09 848 25.04 4.6 40.3 40 -7.9 17.8
09:20 1019 30.09 848 25.04 4.6 40.2 41 -7.7 18.1
09:25 1019 30.09 848 25.04 5.3 41.6 37 -8.1 17.4
09:30 1019 30.09 848 25.04 5.9 42.6 35 -8.5 16.7
09:35 1019 30.09 848 25.04 5.2 41.4 36 -8.6 16.6
09:40 1019 30.09 848 25.04 5.3 41.5 38 -7.9 17.8
09:45 1019 30.09 848 25.04 4.6 40.2 40 -8 17.6
09:50 1019 30.09 848 25.04 5.3 41.5 38 -8 17.6
09:55 1019 30.09 848 25.04 5.8 42.4 35 -8.7 16.4
10:00 1019 30.09 848 25.04 5.8 42.5 36 -8.3 17.1
10:05 1019 30.09 848 25.04 6.1 43.1 35 -8.3 17
10:10 1019 30.09 848 25.04 6.9 44.4 33 -8.2 17.3
10:15 1019 30.09 848 25.04 7.3 45.1 32 -8.4 16.9
10:20 1019 30.09 848 25.04 6.4 43.6 33 -8.5 16.6
10:25 1019 30.09 848 25.04 6.2 43.1 35 -8.4 17
10:30 1019 30.09 848 25.04 6.6 43.8 33 -8.5 16.7
10:35 1019 30.09 848 25.04 7.3 45.2 32 -8.2 17.2
10:40 1019 30.09 848 25.04 7.7 45.8 32 -7.8 17.9
10:45 1019 30.09 848 25.04 6.9 44.4 33 -8.4 17
10:50 1019 30.09 848 25.04 6.3 43.3 35 -8.2 17.2
10:55 1019 30.09 848 25.04 6.7 44 35 -7.8 17.9
11:00 1018 30.06 848 25.04 7.2 45 35 -7.4 18.6
11:05 1018 30.06 848 25.04 7 44.6 35 -7.5 18.5
11:10 1018 30.06 848 25.04 6.4 43.5 35 -7.9 17.8
11:15 1018 30.06 847 25.01 6.7 44 34 -8 17.6
11:20 1018 30.06 847 25.01 7.3 45.2 33 -8 17.6
11:25 1018 30.06 847 25.01 8.1 46.6 32 -7.8 18
11:30 1018 30.06 847 25.01 8.1 46.5 32 -7.8 17.9
11:35 1018 30.06 847 25.01 8.3 47 34 -6.8 19.8
11:40 1018 30.06 847 25.01 7.6 45.8 33 -7.6 18.4
11:45 1018 30.06 847 25.01 7.3 45.2 35 -7.1 19.3
11:50 1018 30.06 847 25.01 7.1 44.8 33 -7.9 17.7
11:55 1018 30.06 847 25.01 8.8 47.8 31 -7.6 18.3
12:00 1018 30.06 847 25.01 9.4 48.9 31 -6.8 19.7
12:05 1018 30.06 847 25.01 9.3 48.7 31 -7.1 19.3
12:10 1018 30.06 847 25.01 9.4 48.9 31 -7 19.3
12:15 1018 30.06 847 25.01 8.3 47 34 -6.7 20
12:20 1018 30.06 847 25.01 9.1 48.3 31 -7.2 19.1
12:25 1018 30.06 847 25.01 9.8 49.6 31 -6.3 20.6
12:30 1018 30.06 847 25.01 9.5 49 30 -7.1 19.3
12:35 1018 30.06 847 25.01 10.1 50.1 30 -6.6 20.1
12:40 1018 30.06 847 25.01 10.2 50.4 30 -6.6 20.1
12:45 1018 30.06 847 25.01 10.4 50.6 30 -6.6 20.1
12:50 1018 30.06 847 25.01 10.5 50.9 29 -6.6 20.1
12:55 1018 30.06 847 25.01 10.6 51.1 29 -6.6 20.2
13:00 1018 30.06 847 25.01 10.5 50.9 29 -6.8 19.8
13:05 1018 30.06 847 25.01 10.2 50.4 31 -6.2 20.8
13:10 1017 30.03 847 25.01 10.2 50.4 31 -6 21.1
13:15 1017 30.03 847 25.01 10 50.1 31 -6.2 20.8
13:20 1017 30.03 847 25.01 10.5 50.9 30 -6.2 20.8
13:25 1017 30.03 847 25.01 11.2 52.1 29 -6.4 20.6
13:30 1017 30.03 847 25.01 11 51.8 30 -6.1 21.1
13:35 1017 30.03 847 25.01 10.2 50.3 32 -5.6 22
13:40 1017 30.03 846 24.98 10.6 51 29 -6.7 19.9
13:45 1017 30.03 846 24.98 11.1 51.9 30 -5.9 21.3
13:50 1017 30.03 846 24.98 10.9 51.6 30 -5.9 21.3
13:55 1017 30.03 846 24.98 10.9 51.5 31 -5.6 22
14:00 1017 30.03 846 24.98 10.8 51.5 30 -6 21.3
14:05 1017 30.03 846 24.98 11.8 53.2 29 -5.8 21.5
14:10 1017 30.03 846 24.98 11.9 53.4 28 -5.9 21.3
14:15 1017 30.03 846 24.98 11.7 53 29 -5.9 21.3
14:20 1017 30.03 846 24.98 10.9 51.7 32 -5.2 22.6
14:25 1017 30.03 846 24.98 10.3 50.6 32 -5.6 21.9
14:30 1017 30.03 846 24.98 10.5 50.8 29 -6.7 20
14:35 1017 30.03 846 24.98 11.4 52.6 28 -6.4 20.5
14:40 1017 30.03 846 24.98 12 53.6 28 -5.9 21.4
14:45 1017 30.03 846 24.98 10.9 51.7 30 -5.8 21.5
14:50 1017 30.03 846 24.98 10.6 51 29 -6.7 20
14:55 1017 30.03 846 24.98 11.4 52.4 29 -6 21.2
15:00 1017 30.03 846 24.98 10.6 51.1 29 -6.5 20.3
15:05 1017 30.03 846 24.98 11.3 52.4 27 -6.9 19.6
15:10 1017 30.03 846 24.98 11.8 53.2 26 -7 19.4
15:15 1017 30.03 846 24.98 11.2 52.2 28 -6.6 20.1
15:20 1017 30.03 846 24.98 11.7 53 27 -6.8 19.8
15:25 1017 30.03 846 24.98 11.9 53.4 26 -6.8 19.7
15:30 1017 30.03 846 24.98 12.2 53.9 25 -7.5 18.5
15:35 1017 30.03 846 24.98 12.1 53.7 26 -7 19.3
15:40 1017 30.03 846 24.98 11.7 53.1 28 -6.4 20.5
15:45 1017 30.03 846 24.98 11.2 52.1 27 -6.9 19.5
15:50 1017 30.03 846 24.98 11.3 52.4 28 -6.6 20.1
15:55 1017 30.03 846 24.98 12 53.5 25 -7.3 18.9
16:00 1017 30.03 846 24.98 12.2 53.9 23 -8.1 17.4
16:05 1017 30.03 846 24.98 12.4 54.3 23 -8.2 17.2
16:10 1017 30.03 846 24.98 11.8 53.3 25 -7.8 18
16:15 1017 30.03 846 24.98 11.8 53.2 23 -8.8 16.2
16:20 1017 30.03 846 24.98 12.1 53.7 24 -8.1 17.5
16:25 1017 30.03 846 24.98 12.2 53.9 22 -9 15.7
16:30 1017 30.03 846 24.98 12 53.7 23 -8.7 16.3
16:35 1017 30.03 846 24.98 12 53.6 22 -9 15.8
16:40 1016 30 846 24.98 12 53.6 23 -8.2 17.3
16:45 1016 30 846 24.98 12 53.6 22 -8.8 16.2
16:50 1016 30 846 24.98 11.9 53.5 23 -8.3 17.1
16:55 1016 30 846 24.98 11.6 52.8 24 -8.5 16.6
17:00 1017 30.03 846 24.98 11.6 52.8 24 -8.2 17.3
17:05 1017 30.03 846 24.98 11.7 53.1 24 -7.9 17.7
17:10 1017 30.03 846 24.98 11.8 53.2 24 -8.3 17.1
17:15 1017 30.03 846 24.98 11.8 53.2 25 -7.7 18.2
17:20 1017 30.03 846 24.98 11.4 52.5 26 -7.6 18.4
17:25 1017 30.03 846 24.98 11.2 52.2 26 -7.7 18.1
17:30 1017 30.03 846 24.98 11.2 52.2 26 -7.6 18.4
17:35 1016 30 846 24.98 11.1 52 26 -7.6 18.3
17:40 1016 30 846 24.98 10.9 51.6 27 -7.3 18.9
17:45 1016 30 846 24.98 10.9 51.6 27 -7.2 19.1
17:50 1016 30 846 24.98 10.7 51.3 27 -7.7 18.2
17:55 1017 30.03 846 24.98 10.6 51 28 -7 19.5
18:00 1017 30.03 846 24.98 9.6 49.3 32 -6.4 20.5
18:05 1017 30.03 846 24.98 8.7 47.7 33 -6.6 20
18:10 1016 30 846 24.98 8.4 47.2 33 -6.8 19.8
18:15 1016 30 846 24.98 8.5 47.3 33 -6.8 19.8
18:20 1016 30 846 24.98 8.6 47.5 33 -6.7 20
18:25 1016 30 846 24.98 7.8 46 37 -6 21.3
18:30 1016 30 846 24.98 7.2 44.9 38 -6.1 21
18:35 1017 30.03 846 24.98 6.4 43.6 40 -6.3 20.7
18:40 1017 30.03 846 24.98 5.9 42.6 40 -6.8 19.8
18:45 1017 30.03 846 24.98 5.6 42.1 39 -7.2 19.1
18:50 1017 30.03 846 24.98 5.3 41.5 40 -7.2 19
18:55 1017 30.03 846 24.98 4.6 40.4 43 -7 19.4
19:00 1017 30.03 846 24.98 4.2 39.6 43 -7.3 18.9
19:05 1017 30.03 846 24.98 4.1 39.4 44 -7.1 19.2
19:10 1017 30.03 846 24.98 4 39.2 45 -6.9 19.5
19:15 1017 30.03 846 24.98 3.8 38.8 45 -7 19.3
19:20 1017 30.03 846 24.98 3.6 38.4 46 -7 19.3
19:25 1017 30.03 846 24.98 3.6 38.5 45 -7.4 18.7
19:30 1017 30.03 846 24.98 3.6 38.5 45 -7.3 18.8
19:35 1017 30.03 846 24.98 3.3 38 48 -6.6 20.1
19:40 1017 30.03 846 24.98 3.1 37.7 46 -7.2 19
19:45 1017 30.03 846 24.98 3.3 37.9 48 -6.6 20.1
19:50 1017 30.03 846 24.98 3.2 37.8 48 -6.8 19.7
19:55 1017 30.03 846 24.98 3.1 37.6 48 -6.8 19.7
20:00 1017 30.03 846 24.98 3 37.4 47 -7.1 19.2
20:05 1017 30.03 846 24.98 2.9 37.3 44 -8.1 17.5
20:10 1017 30.03 846 24.98 3.3 37.9 43 -8.2 17.2
20:15 1017 30.03 846 24.98 3.8 38.8 40 -8.7 16.3
20:20 1017 30.03 846 24.98 3.9 39 40 -8.4 16.8
20:25 1017 30.03 846 24.98 3.5 38.3 41 -8.5 16.8
20:30 1017 30.03 846 24.98 3.8 38.9 41 -8.2 17.3
20:35 1017 30.03 846 24.98 3.6 38.5 41 -8.6 16.5
20:40 1017 30.03 846 24.98 3.6 38.6 39 -8.9 15.9
20:45 1017 30.03 846 24.98 3.9 39 38 -9 15.8
20:50 1017 30.03 846 24.98 3.9 39 39 -9 15.8
20:55 1017 30.03 846 24.98 3.5 38.2 41 -8.5 16.6
21:00 1017 30.03 846 24.98 3 37.4 43 -8.3 17.1
21:05 1017 30.03 846 24.98 2.7 36.9 43 -8.6 16.5
21:10 1017 30.03 846 24.98 2.9 37.3 43 -8.5 16.6
21:15 1017 30.03 846 24.98 2.8 37 44 -8.4 16.9
21:20 1017 30.03 846 24.98 2.7 36.9 44 -8.2 17.2
21:25 1017 30.03 846 24.98 2.5 36.5 46 -8.1 17.4
21:30 1017 30.03 846 24.98 2.4 36.2 45 -8.4 17
21:35 1017 30.03 846 24.98 2.4 36.2 46 -8.1 17.5
21:40 1017 30.03 846 24.98 2.1 35.8 48 -7.7 18.1
21:45 1017 30.03 846 24.98 2.2 36 49 -7.5 18.6
21:50 1017 30.03 846 24.98 1.8 35.2 52 -7.1 19.3
21:55 1017 30.03 846 24.98 1.5 34.6 51 -7.5 18.5
22:00 1017 30.03 846 24.98 1.8 35.3 50 -7.6 18.3
22:05 1017 30.03 846 24.98 2.2 35.9 48 -7.8 18
22:10 1017 30.03 846 24.98 2.4 36.3 48 -7.6 18.3
22:15 1017 30.03 846 24.98 2.6 36.7 46 -7.8 18
22:20 1017 30.03 846 24.98 2.6 36.7 47 -7.6 18.3
22:25 1017 30.03 846 24.98 2.4 36.3 47 -7.9 17.8
22:30 1017 30.03 846 24.98 2.6 36.6 45 -8.2 17.2
22:35 1017 30.03 846 24.98 2.6 36.7 46 -7.9 17.7
22:40 1017 30.03 846 24.98 2.5 36.4 48 -7.5 18.5
22:45 1017 30.03 846 24.98 2.2 35.9 50 -7.2 19
22:50 1017 30.03 846 24.98 2 35.7 50 -7.2 19
22:55 1017 30.03 846 24.98 2 35.7 50 -7.4 18.7
23:00 1017 30.03 846 24.98 2.2 36 49 -7.5 18.4
23:05 1017 30.03 846 24.98 2.4 36.3 48 -7.5 18.5
23:10 1017 30.03 846 24.98 2.4 36.4 47 -7.6 18.3
23:15 1017 30.03 846 24.98 2.5 36.5 47 -7.7 18.1
23:20 1017 30.03 846 24.98 2.5 36.6 47 -7.6 18.2
23:25 1017 30.03 846 24.98 2.4 36.4 47 -7.7 18.2
23:30 1017 30.03 846 24.98 2.7 36.9 46 -7.8 18
23:35 1017 30.03 846 24.98 2.6 36.6 47 -7.7 18.2
23:40 1017 30.03 846 24.98 2.6 36.7 47 -7.5 18.5
23:45 1017 30.03 846 24.98 2.4 36.3 48 -7.4 18.7
23:50 1017 30.03 846 24.98 2.4 36.3 49 -7.3 18.9
23:55 1017 30.03 846 24.98 2.3 36.2 49 -7.2 19
24:00 1017 30.03 846 24.98 2.3 36.1 50 -7.2 19